createdAt,value
2023-05-12T00:00:24.759Z,98.21
2023-05-12T00:02:26.600Z,98.65
2023-05-12T00:04:28.201Z,98.34
2023-05-12T00:06:29.804Z,97.96
2023-05-12T00:08:31.474Z,98.32
2023-05-12T00:10:33.107Z,97.86
2023-05-12T00:12:34.635Z,97.72
2023-05-12T00:14:36.918Z,98.31
2023-05-12T00:16:38.504Z,98.33
2023-05-12T00:18:40.105Z,98.23
2023-05-12T00:20:41.778Z,98.15
2023-05-12T00:22:43.471Z,98.38
2023-05-12T00:24:45.051Z,97.90
2023-05-12T00:26:46.598Z,98.18
2023-05-12T00:28:48.779Z,98.00
2023-05-12T00:30:50.465Z,97.30
2023-05-12T00:32:52.094Z,97.32
2023-05-12T00:34:54.585Z,97.71
2023-05-12T00:36:56.121Z,97.77
2023-05-12T00:38:58.482Z,98.07
2023-05-12T00:41:01.275Z,97.80
2023-05-12T00:43:02.776Z,98.00
2023-05-12T00:45:05.816Z,98.01
2023-05-12T00:47:07.881Z,98.25
2023-05-12T00:49:09.452Z,98.04
2023-05-12T00:51:12.553Z,97.66
2023-05-12T00:53:14.207Z,98.01
2023-05-12T00:55:16.349Z,98.37
2023-05-12T00:57:19.107Z,98.21
2023-05-12T00:59:20.688Z,97.90
2023-05-12T01:01:22.379Z,98.12
2023-05-12T01:03:24.185Z,98.29
2023-05-12T01:05:36.132Z,98.24
2023-05-12T01:07:39.176Z,97.83
2023-05-12T01:09:40.780Z,98.45
2023-05-12T01:11:42.322Z,98.11
2023-05-12T01:13:43.949Z,97.83
2023-05-12T01:15:47.875Z,97.59
2023-05-12T01:18:02.016Z,98.24
2023-05-12T01:20:06.140Z,97.92
2023-05-12T01:22:09.312Z,97.95
2023-05-12T01:24:12.171Z,98.29
2023-05-12T01:26:13.824Z,98.86
2023-05-12T01:28:16.658Z,98.63
2023-05-12T01:30:20.119Z,98.64
2023-05-12T01:32:22.340Z,98.36
2023-05-12T01:34:23.992Z,98.78
2023-05-12T01:36:25.525Z,98.77
2023-05-12T01:38:27.520Z,99.06
2023-05-12T01:40:29.124Z,99.12
2023-05-12T01:42:30.612Z,98.63
2023-05-12T01:44:32.229Z,98.59
2023-05-12T01:46:33.801Z,98.71
2023-05-12T01:48:35.443Z,98.06
2023-05-12T01:50:36.969Z,98.41
2023-05-12T01:52:38.456Z,98.67
2023-05-12T01:54:40.162Z,98.30
2023-05-12T01:56:42.085Z,98.81
2023-05-12T01:58:43.619Z,98.79
2023-05-12T02:00:45.204Z,98.77
2023-05-12T02:02:46.846Z,98.35
2023-05-12T02:04:48.444Z,98.64
2023-05-12T02:06:49.975Z,98.23
2023-05-12T02:08:51.788Z,98.70
2023-05-12T02:11:08.352Z,98.02
2023-05-12T02:13:09.858Z,98.94
2023-05-12T02:15:11.587Z,98.77
2023-05-12T02:17:13.250Z,98.61
2023-05-12T02:19:14.748Z,98.50
2023-05-12T02:21:16.389Z,98.10
2023-05-12T02:23:17.968Z,98.11
2023-05-12T02:25:19.507Z,98.77
2023-05-12T02:27:21.160Z,99.17
2023-05-12T02:29:23.107Z,98.43
2023-05-12T02:31:24.679Z,97.98
2023-05-12T02:33:26.854Z,98.00
2023-05-12T02:35:28.479Z,97.69
2023-05-12T02:37:29.978Z,98.21
2023-05-12T02:39:31.578Z,98.31
2023-05-12T02:41:33.148Z,97.53
2023-05-12T02:43:34.655Z,97.80
2023-05-12T02:45:36.416Z,98.16
2023-05-12T02:47:38.011Z,97.30
2023-05-12T02:49:39.618Z,97.56
2023-05-12T02:51:41.114Z,98.38
2023-05-12T02:53:42.641Z,98.09
2023-05-12T02:55:44.220Z,98.19
2023-05-12T02:57:45.865Z,97.63
2023-05-12T02:59:47.453Z,97.91
2023-05-12T03:01:49.047Z,97.77
2023-05-12T03:03:50.738Z,97.96
2023-05-12T03:05:53.445Z,97.81
2023-05-12T03:07:55.000Z,96.90
2023-05-12T03:09:57.748Z,97.73
2023-05-12T03:11:59.277Z,97.52
2023-05-12T03:14:00.829Z,97.10
2023-05-12T03:16:02.433Z,97.18
2023-05-12T03:18:04.180Z,97.04
2023-05-12T03:20:06.863Z,96.82
2023-05-12T03:22:08.698Z,96.63
2023-05-12T03:24:10.462Z,97.03
2023-05-12T03:26:11.991Z,97.13
2023-05-12T03:28:13.513Z,96.89
2023-05-12T03:30:15.137Z,96.79
2023-05-12T03:32:16.799Z,96.93
2023-05-12T03:34:18.928Z,97.06
2023-05-12T03:36:20.495Z,97.12
2023-05-12T03:38:22.329Z,96.79
2023-05-12T03:40:23.920Z,97.29
2023-05-12T03:42:25.500Z,97.13
2023-05-12T03:44:27.053Z,97.38
2023-05-12T03:46:29.008Z,97.09
2023-05-12T03:48:30.615Z,97.34
2023-05-12T03:50:32.175Z,97.89
2023-05-12T03:52:33.839Z,97.79
2023-05-12T03:54:37.217Z,97.07
2023-05-12T03:56:39.580Z,97.79
2023-05-12T03:58:41.125Z,98.16
2023-05-12T04:00:44.154Z,97.83
2023-05-12T04:02:46.506Z,97.04
2023-05-12T04:04:48.217Z,97.16
2023-05-12T04:06:49.817Z,97.32
2023-05-12T04:08:51.357Z,97.45
2023-05-12T04:10:56.164Z,97.94
2023-05-12T04:12:57.749Z,98.01
2023-05-12T04:14:59.718Z,97.24
2023-05-12T04:17:01.390Z,97.58
2023-05-12T04:19:03.412Z,97.08
2023-05-12T04:21:05.538Z,97.71
2023-05-12T04:23:07.436Z,97.35
2023-05-12T04:25:09.992Z,97.21
2023-05-12T04:27:11.761Z,97.37
2023-05-12T04:29:13.422Z,97.91
2023-05-12T04:31:14.984Z,97.11
2023-05-12T04:33:16.554Z,97.40
2023-05-12T04:35:18.157Z,97.05
2023-05-12T04:37:19.721Z,97.28
2023-05-12T04:39:21.380Z,97.07
2023-05-12T04:41:22.911Z,96.81
2023-05-12T04:45:28.879Z,96.65
2023-05-12T04:47:30.504Z,96.94
2023-05-12T04:49:32.079Z,96.38
2023-05-12T04:51:33.654Z,96.26
2023-05-12T04:53:36.315Z,96.58
2023-05-12T04:55:37.888Z,96.25
2023-05-12T04:57:41.446Z,96.28
2023-05-12T04:59:43.236Z,96.38
2023-05-12T05:01:44.799Z,96.58
2023-05-12T05:03:46.469Z,96.47
2023-05-12T05:05:49.081Z,96.62
2023-05-12T05:07:50.701Z,96.82
2023-05-12T05:09:52.294Z,96.31
2023-05-12T05:11:53.947Z,96.29
2023-05-12T05:13:55.628Z,96.28
2023-05-12T05:15:57.225Z,96.28
2023-05-12T05:18:01.744Z,96.20
2023-05-12T05:20:09.499Z,96.00
2023-05-12T05:22:13.359Z,95.67
2023-05-12T05:24:15.045Z,95.17
2023-05-12T05:26:16.607Z,95.05
2023-05-12T05:28:18.144Z,94.78
2023-05-12T05:30:19.780Z,94.59
2023-05-12T05:32:21.853Z,94.38
2023-05-12T05:34:23.514Z,94.47
2023-05-12T05:36:29.936Z,94.60
2023-05-12T05:38:32.726Z,94.14
2023-05-12T05:40:48.819Z,94.35
2023-05-12T05:42:54.276Z,94.65
2023-05-12T05:44:56.386Z,93.43
2023-05-12T05:46:58.768Z,92.85
2023-05-12T05:49:00.374Z,93.39
2023-05-12T05:51:02.319Z,93.10
2023-05-12T05:53:03.858Z,93.94
2023-05-12T05:55:05.680Z,93.53
2023-05-12T05:57:07.321Z,93.16
2023-05-12T05:59:09.882Z,92.39
2023-05-12T06:01:11.789Z,92.98
2023-05-12T06:03:13.530Z,92.21
2023-05-12T06:05:15.193Z,92.94
2023-05-12T06:07:16.749Z,91.26
2023-05-12T06:09:18.315Z,90.92
2023-05-12T06:11:19.851Z,90.82
2023-05-12T06:13:22.587Z,90.73
2023-05-12T06:15:24.109Z,91.57
2023-05-12T06:17:25.785Z,90.57
2023-05-12T06:19:27.341Z,90.81
2023-05-12T06:21:28.932Z,91.57
2023-05-12T06:23:30.707Z,91.31
2023-05-12T06:25:33.324Z,91.40
2023-05-12T06:27:34.963Z,91.82
2023-05-12T06:29:36.499Z,92.17
2023-05-12T06:31:38.094Z,91.19
2023-05-12T06:33:39.743Z,91.26
2023-05-12T06:35:41.276Z,91.10
2023-05-12T06:37:44.898Z,91.71
2023-05-12T06:39:46.384Z,91.89
2023-05-12T06:41:47.911Z,91.64
2023-05-12T06:43:49.438Z,91.92
2023-05-12T06:45:51.482Z,92.25
2023-05-12T06:47:53.133Z,91.56
2023-05-12T06:49:54.721Z,91.66
2023-05-12T06:51:56.489Z,91.36
2023-05-12T06:53:58.075Z,91.27
2023-05-12T06:55:59.596Z,91.21
2023-05-12T06:58:01.180Z,91.91
2023-05-12T07:00:03.520Z,91.10
2023-05-12T07:02:05.290Z,90.59
2023-05-12T07:04:07.984Z,91.45
2023-05-12T07:06:09.751Z,90.57
2023-05-12T07:08:11.299Z,91.55
2023-05-12T07:10:12.886Z,90.74
2023-05-12T07:12:14.462Z,90.46
2023-05-12T07:14:15.951Z,90.86
2023-05-12T07:16:19.383Z,90.06
2023-05-12T07:18:21.065Z,90.67
2023-05-12T07:20:22.870Z,90.06
2023-05-12T07:22:24.404Z,90.28
2023-05-12T07:24:26.085Z,89.50
2023-05-12T07:26:29.282Z,89.34
2023-05-12T07:28:32.469Z,88.79
2023-05-12T07:30:34.034Z,88.56
2023-05-12T07:32:35.584Z,88.32
2023-05-12T07:34:38.366Z,87.98
2023-05-12T07:36:39.848Z,87.70
2023-05-12T07:38:41.700Z,87.45
2023-05-12T07:40:44.641Z,87.96
2023-05-12T07:42:46.220Z,87.78
2023-05-12T07:44:48.002Z,87.33
2023-05-12T07:46:49.624Z,86.80
2023-05-12T07:48:51.151Z,87.31
2023-05-12T07:50:52.976Z,86.51
2023-05-12T07:52:54.610Z,85.78
2023-05-12T07:54:57.707Z,85.06
2023-05-12T07:56:59.238Z,85.57
2023-05-12T07:59:01.223Z,84.84
2023-05-12T08:01:06.012Z,85.90
2023-05-12T08:03:07.759Z,82.92
2023-05-12T08:05:10.720Z,83.65
2023-05-12T08:07:12.248Z,83.40
2023-05-12T08:09:13.824Z,83.68
2023-05-12T08:11:15.454Z,83.13
2023-05-12T08:13:17.081Z,84.51
2023-05-12T08:15:18.823Z,83.22
2023-05-12T08:17:20.594Z,82.32
2023-05-12T08:19:22.211Z,82.01
2023-05-12T08:21:24.077Z,80.22
2023-05-12T08:23:25.692Z,78.97
2023-05-12T08:25:30.301Z,79.52
2023-05-12T08:27:31.998Z,80.75
2023-05-12T08:29:33.622Z,80.94
2023-05-12T08:31:35.534Z,80.22
2023-05-12T08:33:37.309Z,79.92
2023-05-12T08:35:39.194Z,79.78
2023-05-12T08:37:40.833Z,77.85
2023-05-12T08:39:42.420Z,76.92
2023-05-12T08:41:51.467Z,76.91
2023-05-12T08:43:53.224Z,78.46
2023-05-12T08:45:57.724Z,79.02
2023-05-12T08:48:00.964Z,79.59
2023-05-12T08:50:04.426Z,79.67
2023-05-12T08:52:07.812Z,78.22
2023-05-12T08:54:10.602Z,77.83
2023-05-12T08:58:20.117Z,77.47
2023-05-12T09:00:28.718Z,76.63
2023-05-12T09:02:44.735Z,76.20
2023-05-12T09:04:54.977Z,73.67
2023-05-12T09:06:58.231Z,75.87
2023-05-12T09:09:00.364Z,77.30
2023-05-12T09:11:02.544Z,76.25
2023-05-12T09:13:19.642Z,75.06
2023-05-12T09:15:29.636Z,75.88
2023-05-12T09:17:31.205Z,76.65
2023-05-12T09:19:35.576Z,74.53
2023-05-12T09:21:37.500Z,75.73
2023-05-12T09:23:40.112Z,74.25
2023-05-12T09:25:41.950Z,75.81
2023-05-12T09:27:44.033Z,74.41
2023-05-12T09:29:59.297Z,73.93
2023-05-12T09:32:03.865Z,73.08
2023-05-12T09:34:10.129Z,73.52
2023-05-12T09:36:12.830Z,73.49
2023-05-12T09:38:14.777Z,72.26
2023-05-12T09:40:16.390Z,73.04
2023-05-12T09:42:18.221Z,72.51
2023-05-12T09:44:20.791Z,72.27
2023-05-12T09:46:24.685Z,73.98
2023-05-12T09:48:27.548Z,72.24
2023-05-12T09:50:40.835Z,72.22
2023-05-12T09:52:45.970Z,73.30
2023-05-12T09:54:47.798Z,71.58
2023-05-12T09:56:49.768Z,71.41
2023-05-12T09:58:51.315Z,71.28
2023-05-12T10:02:59.123Z,70.11
2023-05-12T10:05:06.246Z,70.36
2023-05-12T10:07:11.896Z,71.20
2023-05-12T10:09:20.705Z,70.30
2023-05-12T10:11:22.984Z,70.74
2023-05-12T10:13:24.600Z,71.04
2023-05-12T10:15:27.353Z,70.45
2023-05-12T10:17:29.630Z,70.70
2023-05-12T10:19:31.422Z,69.73
2023-05-12T10:21:33.595Z,71.23
2023-05-12T10:23:38.091Z,70.03
2023-05-12T10:25:42.444Z,70.25
2023-05-12T10:27:44.786Z,68.48
2023-05-12T10:29:48.169Z,69.95
2023-05-12T10:31:50.173Z,68.32
2023-05-12T10:33:59.589Z,67.27
2023-05-12T10:36:01.226Z,68.58
2023-05-12T10:38:10.518Z,66.39
2023-05-12T10:40:22.705Z,67.99
2023-05-12T10:42:25.790Z,65.75
2023-05-12T10:44:28.630Z,66.88
2023-05-12T10:46:30.812Z,64.77
2023-05-12T10:48:32.599Z,66.13
2023-05-12T10:50:34.515Z,65.82
2023-05-12T10:52:36.071Z,63.29
2023-05-12T10:54:41.121Z,63.40
2023-05-12T10:56:44.965Z,64.56
2023-05-12T10:59:13.605Z,61.91
2023-05-12T11:01:25.162Z,64.28
2023-05-12T11:03:27.517Z,63.91
2023-05-12T11:05:34.951Z,61.41
2023-05-12T11:07:37.578Z,63.00
2023-05-12T11:09:53.081Z,62.60
2023-05-12T11:12:00.519Z,62.44
2023-05-12T11:14:02.432Z,63.06
2023-05-12T11:16:04.354Z,62.80
2023-05-12T11:18:06.128Z,62.99
2023-05-12T11:20:09.901Z,64.79
2023-05-12T11:22:12.685Z,63.15
2023-05-12T11:24:14.639Z,63.96
2023-05-12T11:26:19.380Z,65.61
2023-05-12T11:28:21.071Z,63.37
2023-05-12T11:30:22.753Z,59.44
2023-05-12T11:32:24.306Z,62.63
2023-05-12T11:34:27.315Z,64.21
2023-05-12T11:36:28.815Z,59.63
2023-05-12T11:38:30.365Z,61.24
2023-05-12T11:40:31.889Z,60.95
2023-05-12T11:42:33.435Z,59.20
2023-05-12T11:44:35.623Z,61.00
2023-05-12T11:46:40.205Z,59.24
2023-05-12T11:48:41.803Z,58.52
2023-05-12T11:50:47.598Z,59.43
2023-05-12T11:52:49.886Z,56.20
2023-05-12T11:54:52.397Z,59.63
2023-05-12T11:56:55.377Z,57.67
2023-05-12T11:58:58.446Z,58.13
2023-05-12T12:01:10.612Z,58.43
2023-05-12T12:03:14.097Z,58.83
2023-05-12T12:05:19.655Z,55.87
2023-05-12T12:07:34.569Z,56.49
2023-05-12T12:09:40.871Z,56.25
2023-05-12T12:11:42.402Z,57.92
2023-05-12T12:16:30.517Z,57.61
2023-05-12T12:18:32.222Z,58.51
2023-05-12T12:20:33.855Z,55.08
2023-05-12T12:22:35.496Z,56.11
2023-05-12T12:24:37.030Z,58.15
2023-05-12T12:26:39.638Z,53.11
2023-05-12T12:28:41.285Z,55.29
2023-05-12T12:30:43.149Z,55.96
2023-05-12T12:32:46.149Z,56.03
2023-05-12T12:34:49.107Z,52.80
2023-05-12T12:36:51.779Z,54.33
2023-05-12T12:38:53.504Z,55.50
2023-05-12T12:40:55.064Z,54.09
2023-05-12T12:42:56.920Z,55.27
2023-05-12T12:44:58.472Z,55.64
2023-05-12T12:47:00.214Z,56.59
2023-05-12T12:49:01.789Z,57.24
2023-05-12T12:51:03.509Z,56.57
2023-05-12T12:53:05.258Z,54.84
2023-05-12T12:55:07.307Z,57.29
2023-05-12T12:57:08.832Z,54.96
2023-05-12T12:59:10.442Z,53.75
2023-05-12T13:01:12.069Z,56.66
2023-05-12T13:03:13.682Z,58.08
2023-05-12T13:05:16.331Z,57.13
2023-05-12T13:07:17.949Z,59.04
2023-05-12T13:09:20.218Z,57.88
2023-05-12T13:11:21.904Z,57.67
2023-05-12T13:13:24.533Z,57.58
2023-05-12T13:15:26.307Z,58.84
2023-05-12T13:17:28.467Z,60.18
2023-05-12T13:19:30.098Z,59.23
2023-05-12T13:21:31.599Z,60.64
2023-05-12T13:23:33.218Z,61.83
2023-05-12T13:25:34.765Z,64.62
2023-05-12T13:27:37.092Z,64.13
2023-05-12T13:29:39.728Z,64.46
2023-05-12T13:31:42.658Z,64.46
2023-05-12T13:33:44.227Z,64.07
2023-05-12T13:35:45.735Z,64.36
2023-05-12T13:37:47.581Z,63.84
2023-05-12T13:39:49.210Z,62.90
2023-05-12T13:41:51.236Z,66.46
2023-05-12T13:43:52.759Z,65.67
2023-05-12T13:45:54.356Z,65.56
2023-05-12T13:47:55.915Z,65.80
2023-05-12T13:49:57.546Z,66.86
2023-05-12T13:51:59.113Z,66.22
2023-05-12T13:54:00.669Z,65.62
2023-05-12T13:56:02.224Z,63.87
2023-05-12T13:58:04.025Z,59.99
2023-05-12T14:00:08.381Z,56.71
2023-05-12T14:02:11.957Z,54.62
2023-05-12T14:04:14.361Z,55.62
2023-05-12T14:06:15.888Z,56.01
2023-05-12T14:08:17.466Z,53.89
2023-05-12T14:10:19.140Z,55.21
2023-05-12T14:12:20.696Z,51.79
2023-05-12T14:14:22.191Z,49.31
2023-05-12T14:16:23.767Z,48.64
2023-05-12T14:18:26.072Z,49.61
2023-05-12T14:20:27.614Z,50.77
2023-05-12T14:22:29.101Z,50.86
2023-05-12T14:24:30.632Z,54.84
2023-05-12T14:26:32.466Z,54.77
2023-05-12T14:28:34.344Z,53.16
2023-05-12T14:30:37.370Z,51.50
2023-05-12T14:32:39.036Z,54.27
2023-05-12T14:34:40.758Z,56.32
2023-05-12T14:36:42.292Z,56.42
2023-05-12T14:38:43.844Z,57.61
2023-05-12T14:40:47.407Z,58.98
2023-05-12T14:42:48.997Z,58.07
2023-05-12T14:44:50.557Z,57.09
2023-05-12T14:46:52.092Z,58.51
2023-05-12T14:48:53.617Z,59.46
2023-05-12T14:50:56.630Z,59.14
2023-05-12T14:52:58.498Z,58.45
2023-05-12T14:54:59.995Z,58.53
2023-05-12T14:57:01.535Z,58.55
2023-05-12T14:59:04.161Z,58.29
2023-05-12T15:01:08.736Z,59.74
2023-05-12T15:03:11.603Z,58.87
2023-05-12T15:05:14.120Z,59.19
2023-05-12T15:07:15.625Z,59.34
2023-05-12T15:09:17.387Z,58.91
2023-05-12T15:11:18.936Z,57.61
2023-05-12T15:13:22.547Z,58.16
2023-05-12T15:15:24.169Z,57.28
2023-05-12T15:17:27.255Z,53.59
2023-05-12T15:19:28.846Z,57.30
2023-05-12T15:21:30.783Z,58.54
2023-05-12T15:23:32.404Z,56.89
2023-05-12T15:25:33.977Z,57.51
2023-05-12T15:27:35.549Z,43.26
2023-05-12T15:29:41.417Z,41.84
2023-05-12T15:31:42.988Z,35.97
2023-05-12T15:33:44.592Z,44.13
2023-05-12T15:35:46.119Z,46.00
2023-05-12T15:37:47.631Z,48.65
2023-05-12T15:39:51.080Z,50.93
2023-05-12T15:41:53.227Z,48.99
2023-05-12T15:43:54.747Z,52.63
2023-05-12T15:45:57.080Z,54.08
2023-05-12T15:47:59.004Z,52.99
2023-05-12T15:50:00.735Z,51.84
2023-05-12T15:52:02.551Z,55.15
2023-05-12T15:54:05.282Z,54.12
2023-05-12T15:56:08.834Z,54.95
2023-05-12T15:58:10.419Z,53.19
2023-05-12T16:00:12.847Z,55.13
2023-05-12T16:02:14.537Z,54.68
2023-05-12T16:04:16.238Z,53.64
2023-05-12T16:06:17.983Z,53.08
2023-05-12T16:08:20.402Z,52.19
2023-05-12T16:10:22.109Z,52.71
2023-05-12T16:12:23.653Z,51.75
2023-05-12T16:14:25.604Z,52.18
2023-05-12T16:16:27.250Z,49.44
2023-05-12T16:18:32.044Z,42.83
2023-05-12T16:20:33.763Z,35.89
2023-05-12T16:22:35.351Z,41.75
2023-05-12T16:24:37.404Z,44.52
2023-05-12T16:26:39.057Z,46.91
2023-05-12T16:28:40.679Z,47.46
2023-05-12T16:30:42.200Z,44.41
2023-05-12T16:32:44.305Z,42.01
2023-05-12T16:34:45.929Z,43.55
2023-05-12T16:36:47.497Z,44.39
2023-05-12T16:38:49.062Z,46.22
2023-05-12T16:40:50.854Z,45.48
2023-05-12T16:42:52.733Z,47.44
2023-05-12T16:44:57.312Z,47.22
2023-05-12T16:46:58.838Z,46.89
2023-05-12T16:49:00.364Z,47.47
2023-05-12T16:51:12.423Z,46.72
2023-05-12T16:53:13.944Z,48.53
2023-05-12T16:55:15.525Z,48.70
2023-05-12T16:57:17.120Z,47.65
2023-05-12T16:59:18.627Z,46.01
2023-05-12T17:01:20.199Z,48.26
2023-05-12T17:03:22.850Z,48.06
2023-05-12T17:05:24.690Z,47.62
2023-05-12T17:07:26.494Z,48.37
2023-05-12T17:09:28.082Z,48.03
2023-05-12T17:11:29.660Z,49.19
2023-05-12T17:13:31.264Z,49.02
2023-05-12T17:15:32.787Z,49.59
2023-05-12T17:17:34.625Z,49.81
2023-05-12T17:19:41.722Z,51.06
2023-05-12T17:21:43.478Z,50.59
2023-05-12T17:23:45.734Z,51.85
2023-05-12T17:25:47.331Z,52.57
2023-05-12T17:27:49.397Z,52.54
2023-05-12T17:29:50.939Z,52.59
2023-05-12T17:31:52.753Z,52.60
2023-05-12T17:33:54.453Z,53.40
2023-05-12T17:36:10.958Z,52.76
2023-05-12T17:38:14.234Z,53.78
2023-05-12T17:40:17.902Z,54.96
2023-05-12T17:42:19.565Z,52.35
2023-05-12T17:44:21.600Z,53.67
2023-05-12T17:46:23.315Z,53.14
2023-05-12T17:48:26.424Z,53.10
2023-05-12T17:50:28.001Z,54.26
2023-05-12T17:52:29.651Z,55.14
2023-05-12T17:54:31.578Z,54.71
2023-05-12T17:56:33.130Z,54.71
2023-05-12T17:58:34.735Z,55.29
2023-05-12T18:00:37.992Z,55.52
2023-05-12T18:02:41.892Z,56.32
2023-05-12T18:04:43.711Z,54.48
2023-05-12T18:06:50.025Z,56.04
2023-05-12T18:08:52.274Z,55.97
2023-05-12T18:10:53.851Z,56.19
2023-05-12T18:12:55.682Z,55.23
2023-05-12T18:14:57.240Z,56.89
2023-05-12T18:16:59.030Z,56.46
2023-05-12T18:19:00.954Z,56.77
2023-05-12T18:21:02.862Z,56.67
2023-05-12T18:23:04.616Z,57.90
2023-05-12T18:25:06.771Z,57.62
2023-05-12T18:27:08.337Z,58.11
2023-05-12T18:29:10.024Z,58.75
2023-05-12T18:33:16.252Z,59.21
2023-05-12T18:35:18.024Z,59.85
2023-05-12T18:37:20.111Z,60.24
2023-05-12T18:39:22.550Z,61.02
2023-05-12T18:41:24.107Z,60.15
2023-05-12T18:43:25.778Z,62.02
2023-05-12T18:45:27.416Z,62.53
2023-05-12T18:47:29.042Z,60.44
2023-05-12T18:49:30.744Z,62.07
2023-05-12T18:51:32.801Z,61.68
2023-05-12T18:53:34.318Z,62.56
2023-05-12T18:55:35.947Z,63.45
2023-05-12T18:57:37.451Z,63.97
2023-05-12T18:59:39.025Z,64.73
2023-05-12T19:01:40.634Z,65.65
2023-05-12T19:03:42.206Z,64.35
2023-05-12T19:05:46.355Z,63.82
2023-05-12T19:07:47.972Z,63.30
2023-05-12T19:09:49.605Z,62.46
2023-05-12T19:11:51.366Z,61.79
2023-05-12T19:13:52.991Z,63.34
2023-05-12T19:15:54.550Z,64.28
2023-05-12T19:17:56.255Z,62.76
2023-05-12T19:19:57.834Z,64.87
2023-05-12T19:21:59.584Z,63.36
2023-05-12T19:24:01.453Z,63.33
2023-05-12T19:26:03.099Z,65.77
2023-05-12T19:28:04.912Z,65.60
2023-05-12T19:30:07.168Z,65.79
2023-05-12T19:32:09.040Z,63.56
2023-05-12T19:34:10.825Z,63.74
2023-05-12T19:36:12.417Z,65.44
2023-05-12T19:38:14.256Z,63.48
2023-05-12T19:40:15.835Z,64.03
2023-05-12T19:42:17.389Z,64.96
2023-05-12T19:44:19.102Z,64.03
2023-05-12T19:46:21.016Z,65.67
2023-05-12T19:48:22.606Z,66.20
2023-05-12T19:50:24.138Z,67.80
2023-05-12T19:52:25.744Z,67.79
2023-05-12T19:54:27.406Z,68.73
2023-05-12T19:56:29.624Z,69.60
2023-05-12T19:58:31.152Z,68.81
2023-05-12T20:00:32.746Z,71.43
2023-05-12T20:02:34.345Z,71.84
2023-05-12T20:04:35.901Z,72.33
2023-05-12T20:06:37.536Z,71.91
2023-05-12T20:08:39.060Z,72.67
2023-05-12T20:10:40.598Z,72.83
2023-05-12T20:12:42.200Z,73.36
2023-05-12T20:14:43.763Z,73.42
2023-05-12T20:16:45.399Z,73.72
2023-05-12T20:18:47.029Z,72.79
2023-05-12T20:20:48.900Z,73.02
2023-05-12T20:22:50.445Z,73.22
2023-05-12T20:24:52.035Z,73.64
2023-05-12T20:26:54.073Z,74.74
2023-05-12T20:28:55.592Z,74.66
2023-05-12T20:30:57.222Z,74.60
2023-05-12T20:32:58.822Z,74.26
2023-05-12T20:35:00.419Z,73.76
2023-05-12T20:37:02.042Z,74.06
2023-05-12T20:39:07.093Z,74.53
2023-05-12T20:41:09.133Z,74.45
2023-05-12T20:43:10.814Z,74.96
2023-05-12T20:45:13.462Z,74.80
2023-05-12T20:47:15.063Z,74.62
2023-05-12T20:49:16.722Z,74.57
2023-05-12T20:51:18.298Z,74.91
2023-05-12T20:53:19.888Z,75.89
2023-05-12T20:55:21.542Z,76.66
2023-05-12T20:57:23.318Z,76.37
2023-05-12T20:59:24.888Z,76.77
2023-05-12T21:01:26.481Z,77.37
2023-05-12T21:03:28.192Z,77.47
2023-05-12T21:05:30.194Z,77.01
2023-05-12T21:07:32.084Z,77.07
2023-05-12T21:09:33.736Z,77.38
2023-05-12T21:11:35.341Z,77.65
2023-05-12T21:13:36.947Z,77.18
2023-05-12T21:15:38.454Z,78.23
2023-05-12T21:17:40.965Z,78.38
2023-05-12T21:19:44.002Z,78.39
2023-05-12T21:21:45.734Z,79.01
2023-05-12T21:23:47.309Z,79.68
2023-05-12T21:25:49.173Z,80.14
2023-05-12T21:27:51.825Z,80.09
2023-05-12T21:29:53.318Z,79.91
2023-05-12T21:31:54.863Z,80.62
2023-05-12T21:33:56.453Z,81.02
2023-05-12T21:35:58.645Z,81.83
2023-05-12T21:38:00.225Z,82.39
2023-05-12T21:40:02.119Z,82.86
2023-05-12T21:42:03.932Z,80.55
2023-05-12T21:44:10.998Z,81.22
2023-05-12T21:46:12.825Z,81.06
2023-05-12T21:48:15.108Z,81.35
2023-05-12T21:50:17.757Z,82.19
2023-05-12T21:52:19.334Z,83.49
2023-05-12T21:54:20.962Z,83.05
2023-05-12T21:56:23.059Z,83.18
2023-05-12T21:58:24.697Z,83.14
2023-05-12T22:00:26.314Z,83.57
2023-05-12T22:02:27.838Z,84.19
2023-05-12T22:04:29.365Z,83.65
2023-05-12T22:06:31.170Z,84.41
2023-05-12T22:08:32.784Z,84.33
2023-05-12T22:10:34.323Z,85.60
2023-05-12T22:12:35.934Z,86.66
2023-05-12T22:14:37.828Z,85.62
2023-05-12T22:16:42.156Z,86.50
2023-05-12T22:18:44.558Z,85.58
2023-05-12T22:20:46.462Z,86.16
2023-05-12T22:22:48.013Z,87.47
2023-05-12T22:24:49.641Z,85.91
2023-05-12T22:26:51.204Z,85.62
2023-05-12T22:28:52.746Z,85.49
2023-05-12T22:30:54.277Z,84.83
2023-05-12T22:32:56.314Z,83.87
2023-05-12T22:34:57.934Z,83.64
2023-05-12T22:36:59.524Z,82.73
2023-05-12T22:39:01.134Z,83.29
2023-05-12T22:41:02.655Z,84.84
2023-05-12T22:43:04.316Z,85.18
2023-05-12T22:45:06.967Z,84.47
2023-05-12T22:47:08.773Z,84.17
2023-05-12T22:49:10.379Z,84.72
2023-05-12T22:51:11.929Z,84.93
2023-05-12T22:53:13.982Z,84.58
2023-05-12T22:55:15.530Z,84.66
2023-05-12T22:57:17.078Z,84.68
2023-05-12T22:59:18.616Z,85.22
2023-05-12T23:01:20.200Z,85.25
2023-05-12T23:03:21.787Z,85.10
2023-05-12T23:05:23.439Z,85.33
2023-05-12T23:07:24.949Z,85.28
2023-05-12T23:09:26.469Z,85.05
2023-05-12T23:11:28.000Z,85.62
2023-05-12T23:13:29.826Z,85.93
2023-05-12T23:15:31.421Z,85.55
2023-05-12T23:17:33.277Z,85.12
2023-05-12T23:19:35.378Z,85.35
2023-05-12T23:21:36.913Z,85.41
2023-05-12T23:23:38.438Z,85.24
2023-05-12T23:25:41.814Z,85.08
2023-05-12T23:27:43.349Z,84.92
2023-05-12T23:29:44.931Z,86.36
2023-05-12T23:31:46.537Z,85.98
2023-05-12T23:33:48.190Z,86.45
2023-05-12T23:35:49.809Z,86.11
2023-05-12T23:37:51.418Z,86.24
2023-05-12T23:39:52.948Z,87.21
2023-05-12T23:41:54.454Z,87.75
2023-05-12T23:43:56.049Z,87.65
2023-05-12T23:45:58.225Z,86.32
2023-05-12T23:48:00.511Z,87.99
2023-05-12T23:50:02.166Z,88.08
2023-05-12T23:52:03.906Z,87.82
2023-05-12T23:54:05.672Z,88.13
2023-05-12T23:56:07.844Z,88.87
2023-05-12T23:58:10.760Z,88.96
